Time;durP1;ratioP1;P1;durP2;ratioP2;P2;SDS_P1;SDS_P2;PMS_P1;PMS_P2;Temp;Humidity;BMP_temperature;BMP_pressure;BME280_temperature;BME280_humidity;BME280_pressure;Samples;Min_cycle;Max_cycle;Signal;HPM_P1;HPM_P2
2023/05/20 00:00:21;;;;;;;0.20;0.20;;;;;;;21.48;43.55;101883.06;5072444;28;20048;-37
2023/05/20 00:02:47;;;;;;;0.20;0.20;;;;;;;21.49;43.37;101880.03;5054526;28;20206;-38
2023/05/20 00:05:13;;;;;;;0.20;0.20;;;;;;;21.49;43.37;101874.47;5054659;28;20093;-37
2023/05/20 00:07:38;;;;;;;0.20;0.20;;;;;;;21.48;43.56;101869.22;5054017;28;20056;-37
2023/05/20 00:10:05;;;;;;;0.17;0.17;;;;;;;21.49;43.45;101880.03;5060374;28;20044;-37
2023/05/20 00:12:30;;;;;;;0.17;0.17;;;;;;;21.48;43.34;101877.53;5074394;28;20457;-37
2023/05/20 00:14:56;;;;;;;0.20;0.20;;;;;;;21.51;43.37;101871.44;5074470;28;20048;-38
2023/05/20 00:17:22;;;;;;;0.20;0.20;;;;;;;21.47;43.65;101873.94;5074625;28;20296;-37
2023/05/20 00:19:47;;;;;;;0.10;0.10;;;;;;;21.48;43.44;101881.13;5074614;28;20052;-37
2023/05/20 00:22:13;;;;;;;0.20;0.20;;;;;;;21.50;43.44;101880.84;5074316;28;20052;-38
2023/05/20 00:24:39;;;;;;;0.10;0.10;;;;;;;21.48;43.46;101881.13;5074464;28;20044;-37
2023/05/20 00:27:04;;;;;;;0.20;0.20;;;;;;;21.50;43.36;101880.84;5074276;28;20097;-37
2023/05/20 00:29:30;;;;;;;0.10;0.10;;;;;;;21.48;43.46;101877.53;5066978;28;20514;-37
2023/05/20 00:31:56;;;;;;;0.15;0.15;;;;;;;21.49;43.48;101880.03;5054106;28;20689;-37
2023/05/20 00:34:22;;;;;;;0.20;0.20;;;;;;;21.49;43.37;101888.34;5054195;28;20048;-37
2023/05/20 00:36:47;;;;;;;0.20;0.20;;;;;;;21.50;43.51;101886.41;5054093;28;20055;-38
2023/05/20 00:39:13;;;;;;;0.20;0.20;;;;;;;21.49;43.45;101890.28;5056437;28;20083;-37
2023/05/20 00:41:39;;;;;;;0.10;0.10;;;;;;;21.48;43.72;101889.44;5077187;28;20495;-37
2023/05/20 00:44:05;;;;;;;0.10;0.10;;;;;;;21.50;43.40;101878.94;5077907;28;20052;-37
2023/05/20 00:46:31;;;;;;;0.20;0.20;;;;;;;21.49;43.34;101880.03;5078038;28;20058;-37
2023/05/20 00:48:56;;;;;;;0.10;0.10;;;;;;;21.49;43.54;101881.97;5066949;28;20048;-37
2023/05/20 00:51:22;;;;;;;0.20;0.20;;;;;;;21.46;43.68;101875.03;5075041;28;20272;-37
2023/05/20 00:53:48;;;;;;;0.20;0.20;;;;;;;21.49;43.55;101881.97;5077775;28;20044;-37
2023/05/20 00:56:14;;;;;;;0.10;0.10;;;;;;;21.49;43.48;101873.66;5076276;28;20412;-37
2023/05/20 00:58:40;;;;;;;0.15;0.15;;;;;;;21.49;43.52;101876.41;5077627;28;20358;-37
2023/05/20 01:01:06;;;;;;;0.10;0.10;;;;;;;21.49;43.53;101871.72;5069053;28;20479;-37
2023/05/20 01:03:31;;;;;;;0.10;0.10;;;;;;;21.49;43.38;101874.47;5057332;28;20044;-37
2023/05/20 01:05:57;;;;;;;0.10;0.10;;;;;;;21.49;43.45;101870.88;5057583;28;20384;-38
2023/05/20 01:08:24;;;;;;;0.17;0.17;;;;;;;21.51;43.35;101872.28;5057041;28;20254;-37
2023/05/20 01:10:57;;;;;;;0.10;0.10;;;;;;;21.51;43.39;101861.19;5034912;28;20040;-37
2023/05/20 01:13:28;;;;;;;0.20;0.20;;;;;;;21.51;43.51;101866.75;5077362;28;20048;-37
2023/05/20 01:15:55;;;;;;;0.20;0.20;;;;;;;21.50;43.42;101858.69;5076977;28;20067;-37
2023/05/20 01:18:24;;;;;;;0.20;0.20;;;;;;;21.51;43.53;101865.91;5076968;28;20052;-37
2023/05/20 01:20:53;;;;;;;0.20;0.20;;;;;;;21.50;43.54;101862.31;5075655;28;20072;-38
2023/05/20 01:23:18;;;;;;;0.20;0.20;;;;;;;21.50;43.36;101865.09;5077648;28;20399;-37
2023/05/20 01:25:44;;;;;;;0.20;0.20;;;;;;;21.51;43.49;101863.97;5076993;28;20339;-37
2023/05/20 01:28:16;;;;;;;0.20;0.20;;;;;;;21.51;43.45;101860.38;5077021;28;20048;-37
2023/05/20 01:30:48;;;;;;;0.20;0.20;;;;;;;21.50;43.45;101864.22;5073336;28;20094;-37
2023/05/20 01:33:15;;;;;;;0.17;0.17;;;;;;;21.50;43.48;101865.09;5056723;28;20463;-38
2023/05/20 01:35:41;;;;;;;0.20;0.20;;;;;;;21.51;43.42;101860.38;5056193;28;20188;-37
2023/05/20 01:38:07;;;;;;;0.10;0.10;;;;;;;21.50;43.42;101856.75;5056486;28;20048;-37
2023/05/20 01:40:33;;;;;;;0.10;0.10;;;;;;;21.51;43.43;101863.13;5066356;28;20040;-37
2023/05/20 01:42:59;;;;;;;0.20;0.20;;;;;;;21.51;43.43;101865.91;5076925;28;20102;-37
2023/05/20 01:45:24;;;;;;;0.20;0.20;;;;;;;21.49;43.53;101860.63;5076652;28;20804;-37
2023/05/20 01:47:50;;;;;;;0.20;0.20;;;;;;;21.51;43.38;101858.41;5076629;28;20289;-37
2023/05/20 01:50:16;;;;;;;0.20;0.20;;;;;;;21.51;43.51;101860.38;5068769;28;20151;-37
2023/05/20 01:52:42;;;;;;;0.20;0.20;;;;;;;21.50;43.51;101858.69;5056650;28;20052;-37
2023/05/20 01:55:08;;;;;;;0.10;0.10;;;;;;;21.53;43.52;101853.44;5056498;28;20408;-37
2023/05/20 01:57:33;;;;;;;0.15;0.15;;;;;;;21.52;43.43;101843.44;5056537;28;20283;-37
2023/05/20 01:59:59;;;;;;;0.20;0.20;;;;;;;21.53;43.29;101850.66;5061092;28;20677;-37
2023/05/20 02:02:25;;;;;;;0.20;0.20;;;;;;;21.53;43.41;101844.28;5066505;28;20048;-37
2023/05/20 02:04:53;;;;;;;0.20;0.20;;;;;;;21.52;43.49;101849.00;5055364;28;20461;-37
2023/05/20 02:07:19;;;;;;;0.10;0.10;;;;;;;21.52;43.43;101849.00;5054366;28;20110;-38
2023/05/20 02:09:45;;;;;;;0.10;0.10;;;;;;;21.51;43.41;101849.28;5059274;28;20040;-37
2023/05/20 02:12:15;;;;;;;0.10;0.10;;;;;;;21.51;43.38;101847.34;5074989;28;20054;-37
2023/05/20 02:14:43;;;;;;;0.20;0.20;;;;;;;21.52;43.43;101843.44;5076313;28;20234;-37
2023/05/20 02:17:09;;;;;;;0.20;0.20;;;;;;;21.49;43.36;101844.00;5076199;28;20241;-37
2023/05/20 02:19:34;;;;;;;0.10;0.10;;;;;;;21.51;43.44;101841.78;5075781;28;20096;-37
2023/05/20 02:22:00;;;;;;;0.10;0.10;;;;;;;21.51;43.44;101844.56;5076070;28;20044;-37
2023/05/20 02:24:25;;;;;;;0.10;0.10;;;;;;;21.52;43.51;101839.84;5076346;28;20808;-37
2023/05/20 02:26:53;;;;;;;0.20;0.20;;;;;;;21.52;43.54;101851.75;5075994;28;20050;-37
2023/05/20 02:29:20;;;;;;;0.10;0.10;;;;;;;21.51;43.48;101849.28;5076057;28;20044;-37
2023/05/20 02:31:47;;;;;;;0.20;0.20;;;;;;;21.54;43.46;101851.47;5075536;28;20400;-37
2023/05/20 02:34:16;;;;;;;0.20;0.20;;;;;;;21.51;43.43;101836.25;5057464;28;20051;-37
2023/05/20 02:36:41;;;;;;;0.17;0.17;;;;;;;21.49;43.54;101844.00;5037220;28;20056;-37
2023/05/20 02:39:07;;;;;;;0.20;0.20;;;;;;;21.50;43.43;101842.06;5054705;28;20481;-37
2023/05/20 02:41:33;;;;;;;0.20;0.20;;;;;;;21.50;43.56;101836.50;5072725;28;20059;-37
2023/05/20 02:43:59;;;;;;;0.20;0.20;;;;;;;21.53;43.43;101835.97;5075503;28;20603;-37
2023/05/20 02:46:24;;;;;;;0.10;0.10;;;;;;;21.50;43.54;101834.59;5075521;28;20050;-37
2023/05/20 02:48:50;;;;;;;0.13;0.13;;;;;;;21.53;43.40;101839.56;5064570;28;20162;-37
2023/05/20 02:51:16;;;;;;;0.10;0.10;;;;;;;21.51;43.50;101832.66;5071263;28;20051;-37
2023/05/20 02:53:41;;;;;;;0.20;0.20;;;;;;;21.51;43.18;101836.25;5054945;28;20041;-38
2023/05/20 02:56:07;;;;;;;0.20;0.20;;;;;;;21.51;43.53;101830.72;5055595;28;20109;-37
2023/05/20 02:58:34;;;;;;;0.20;0.20;;;;;;;21.52;43.37;101831.53;5052121;28;20048;-37
2023/05/20 03:01:00;;;;;;;0.10;0.10;;;;;;;21.50;43.58;101829.06;5061317;28;20469;-37
2023/05/20 03:03:26;;;;;;;0.20;0.20;;;;;;;21.52;43.41;101832.38;5056733;28;20135;-37
2023/05/20 03:05:52;;;;;;;0.20;0.20;;;;;;;21.51;43.34;101818.78;5055804;28;20127;-38
2023/05/20 03:08:20;;;;;;;0.20;0.20;;;;;;;21.50;43.38;101826.28;5054587;28;20071;-37
2023/05/20 03:10:46;;;;;;;0.10;0.10;;;;;;;21.53;43.41;101822.94;5049073;28;20520;-37
2023/05/20 03:13:13;;;;;;;0.20;0.20;;;;;;;21.52;43.43;101823.22;5056941;28;20355;-37
2023/05/20 03:15:41;;;;;;;0.10;0.10;;;;;;;21.52;43.51;101824.06;5075459;28;20048;-37
2023/05/20 03:18:07;;;;;;;0.10;0.10;;;;;;;21.52;43.36;101826.00;5075337;28;20048;-37
2023/05/20 03:20:37;;;;;;;0.10;0.10;;;;;;;21.51;43.47;101822.41;5056249;28;20284;-37
2023/05/20 03:23:04;;;;;;;0.20;0.20;;;;;;;21.51;43.55;101822.41;5075113;28;20054;-37
2023/05/20 03:25:29;;;;;;;0.20;0.20;;;;;;;21.52;43.34;101818.50;5073618;28;20400;-37
2023/05/20 03:27:57;;;;;;;0.20;0.20;;;;;;;21.56;43.38;101820.75;5075632;28;20541;-37
2023/05/20 03:30:23;;;;;;;0.20;0.20;;;;;;;21.53;43.42;101825.72;5056750;28;20048;-37
2023/05/20 03:32:48;;;;;;;0.20;0.20;;;;;;;21.53;43.41;101819.34;5056706;28;20074;-38
2023/05/20 03:35:14;;;;;;;0.10;0.10;;;;;;;21.54;43.34;101829.31;5063174;28;20072;-37
2023/05/20 03:37:40;;;;;;;0.20;0.20;;;;;;;21.50;43.58;101817.09;5054857;28;20088;-37
2023/05/20 03:40:09;;;;;;;0.20;0.20;;;;;;;21.54;43.44;101813.53;5060724;28;20048;-37
2023/05/20 03:42:35;;;;;;;0.20;0.20;;;;;;;21.52;43.34;101815.75;5074764;28;20044;-37
2023/05/20 03:45:01;;;;;;;0.20;0.20;;;;;;;21.52;43.46;101821.28;5074560;28;20063;-37
2023/05/20 03:47:27;;;;;;;0.15;0.15;;;;;;;21.52;43.47;101820.44;5075141;28;20254;-37
2023/05/20 03:49:53;;;;;;;0.10;0.10;;;;;;;21.52;43.46;101812.97;5073239;28;20050;-37
2023/05/20 03:52:18;;;;;;;0.20;0.20;;;;;;;21.52;43.36;101801.88;5074417;28;20048;-38
2023/05/20 03:54:44;;;;;;;0.10;0.10;;;;;;;21.53;43.44;101811.84;5058752;28;20063;-37
2023/05/20 03:57:10;;;;;;;0.10;0.10;;;;;;;21.54;43.46;101807.13;5054882;28;20468;-37
2023/05/20 03:59:36;;;;;;;0.20;0.20;;;;;;;21.51;43.45;101808.53;5056651;28;20045;-37
2023/05/20 04:02:02;;;;;;;0.10;0.10;;;;;;;21.52;43.38;101810.19;5056697;28;20217;-37
2023/05/20 04:04:28;;;;;;;0.17;0.17;;;;;;;21.54;43.46;101815.44;5060074;28;20490;-37
2023/05/20 04:06:55;;;;;;;0.20;0.20;;;;;;;21.55;43.36;101811.59;5016679;28;20049;-37
2023/05/20 04:09:21;;;;;;;0.10;0.10;;;;;;;21.56;43.41;101812.41;5017700;28;20107;-37
2023/05/20 04:11:47;;;;;;;0.10;0.10;;;;;;;21.54;43.45;101805.22;5074802;28;20074;-37
2023/05/20 04:14:13;;;;;;;0.20;0.20;;;;;;;21.54;43.28;101810.75;5078054;28;20048;-37
2023/05/20 04:16:38;;;;;;;0.10;0.10;;;;;;;21.51;43.50;101800.22;5078415;28;20044;-37
2023/05/20 04:19:04;;;;;;;0.20;0.20;;;;;;;21.55;43.40;101803.28;5078609;28;20047;-37
2023/05/20 04:21:30;;;;;;;0.20;0.20;;;;;;;21.53;43.41;101802.72;5077934;28;20474;-37
2023/05/20 04:23:56;;;;;;;0.10;0.10;;;;;;;21.51;43.52;101808.53;5078103;28;20085;-37
2023/05/20 04:26:21;;;;;;;0.20;0.20;;;;;;;21.54;43.50;101804.38;5078060;28;20051;-37
2023/05/20 04:28:48;;;;;;;0.10;0.10;;;;;;;21.53;43.42;101803.53;5078560;28;20539;-38
2023/05/20 04:31:14;;;;;;;0.20;0.20;;;;;;;21.54;43.18;101804.38;5077691;28;20420;-37
2023/05/20 04:33:40;;;;;;;0.20;0.20;;;;;;;21.51;43.52;101803.00;5078211;28;20492;-37
2023/05/20 04:36:08;;;;;;;0.10;0.10;;;;;;;21.51;43.35;101802.16;5074191;28;20041;-37
2023/05/20 04:38:34;;;;;;;0.20;0.20;;;;;;;21.53;43.36;101798.00;5039657;28;20527;-38
2023/05/20 04:41:00;;;;;;;0.20;0.20;;;;;;;21.53;43.53;101797.16;5053821;28;20048;-37
2023/05/20 04:43:30;;;;;;;0.20;0.20;;;;;;;21.52;43.38;101807.41;5059943;28;20124;-37
2023/05/20 04:45:56;;;;;;;0.10;0.10;;;;;;;21.54;43.45;101808.00;5076408;28;20052;-37
2023/05/20 04:48:22;;;;;;;0.10;0.10;;;;;;;21.55;43.36;101803.28;5076532;28;20051;-38
2023/05/20 04:50:48;;;;;;;0.10;0.10;;;;;;;21.53;43.58;101798.00;5076332;28;20342;-37
2023/05/20 04:53:16;;;;;;;0.10;0.10;;;;;;;21.50;43.47;101800.47;5077922;28;20040;-37
2023/05/20 04:55:42;;;;;;;0.10;0.10;;;;;;;21.52;43.51;101806.59;5070177;28;20044;-37
2023/05/20 04:58:13;;;;;;;0.10;0.10;;;;;;;21.52;43.45;101804.66;5056898;28;20289;-37
2023/05/20 05:00:41;;;;;;;0.17;0.17;;;;;;;21.53;43.41;101795.22;5068932;28;20048;-37
2023/05/20 05:03:07;;;;;;;0.20;0.20;;;;;;;21.52;43.46;101798.28;5076192;28;20072;-37
2023/05/20 05:05:35;;;;;;;0.20;0.20;;;;;;;21.52;43.60;101799.09;5059553;28;20055;-37
2023/05/20 05:08:02;;;;;;;;;;;;;;;21.53;43.42;101789.69;5077670;28;20368;-38
2023/05/20 05:10:27;;;;;;;0.17;0.17;;;;;;;21.56;43.40;101801.34;5077555;28;19927;-37
2023/05/20 05:12:53;;;;;;;0.20;0.20;;;;;;;21.52;43.50;101795.50;5077760;28;20048;-37
2023/05/20 05:15:18;;;;;;;0.20;0.20;;;;;;;21.54;43.45;101796.03;5077437;28;20093;-37
2023/05/20 05:17:44;;;;;;;0.20;0.20;;;;;;;21.53;43.54;101795.22;5077344;28;20046;-37
2023/05/20 05:20:10;;;;;;;0.10;0.10;;;;;;;21.56;43.31;101799.41;5077413;28;20084;-37
2023/05/20 05:22:38;;;;;;;0.10;0.10;;;;;;;21.55;43.36;101797.75;5077672;28;20177;-38
2023/05/20 05:25:04;;;;;;;0.20;0.20;;;;;;;21.54;43.49;101788.59;5076391;28;20041;-37
2023/05/20 05:27:30;;;;;;;0.20;0.20;;;;;;;21.53;43.43;101784.13;5077160;28;20048;-37
2023/05/20 05:29:55;;;;;;;0.20;0.20;;;;;;;21.54;43.28;101783.06;5076651;28;20070;-37
2023/05/20 05:32:21;;;;;;;0.20;0.20;;;;;;;21.54;43.41;101783.06;5077462;28;20465;-37
2023/05/20 05:34:47;;;;;;;0.20;0.20;;;;;;;21.51;43.52;101775.28;5077104;28;20291;-37
2023/05/20 05:37:12;;;;;;;0.10;0.10;;;;;;;21.51;43.41;101780.81;5076732;28;20527;-37
2023/05/20 05:39:38;;;;;;;0.20;0.20;;;;;;;21.54;43.42;101783.06;5060687;28;20090;-37
2023/05/20 05:42:04;;;;;;;0.10;0.10;;;;;;;21.52;43.40;101785.25;5077077;28;20055;-37
2023/05/20 05:44:30;;;;;;;0.20;0.20;;;;;;;21.54;43.38;101784.97;5058907;28;20401;-37
2023/05/20 05:46:55;;;;;;;0.20;0.20;;;;;;;21.53;43.51;101786.91;5077186;28;20048;-37
2023/05/20 05:49:21;;;;;;;0.10;0.10;;;;;;;21.52;43.53;101771.38;5076869;28;20050;-37
2023/05/20 05:51:47;;;;;;;0.10;0.10;;;;;;;21.51;43.54;101782.75;5076965;28;20055;-38
2023/05/20 05:54:12;;;;;;;0.20;0.20;;;;;;;21.52;43.47;101782.47;5077465;28;20044;-37
2023/05/20 05:56:38;;;;;;;0.20;0.20;;;;;;;21.52;43.42;101781.66;5076481;28;20120;-37
2023/05/20 05:59:04;;;;;;;0.10;0.10;;;;;;;21.54;43.53;101777.50;5056024;28;20439;-37
2023/05/20 06:01:30;;;;;;;0.13;0.13;;;;;;;21.54;43.56;101771.97;5074479;28;20048;-37
2023/05/20 06:03:55;;;;;;;0.20;0.20;;;;;;;21.52;43.53;101774.16;5076737;28;20194;-37
2023/05/20 06:06:21;;;;;;;0.13;0.13;;;;;;;21.53;43.43;101778.59;5075950;28;20100;-37
2023/05/20 06:08:47;;;;;;;0.10;0.10;;;;;;;21.53;43.41;101784.13;5076459;28;20470;-37
2023/05/20 06:11:12;;;;;;;0.10;0.10;;;;;;;21.52;43.46;101782.47;5076110;28;20055;-37
2023/05/20 06:13:38;;;;;;;0.10;0.10;;;;;;;21.50;43.31;101773.63;5077065;28;20430;-38
2023/05/20 06:16:04;;;;;;;0.10;0.10;;;;;;;21.56;43.21;101780.00;5076333;28;20476;-38
2023/05/20 06:18:30;;;;;;;0.20;0.20;;;;;;;21.55;43.26;101781.09;5075125;28;20047;-37
2023/05/20 06:20:56;;;;;;;0.20;0.20;;;;;;;21.54;43.53;101783.06;5076052;28;20048;-37
2023/05/20 06:23:21;;;;;;;0.20;0.20;;;;;;;21.53;43.57;101775.00;5058489;28;20079;-38
2023/05/20 06:25:48;;;;;;;0.20;0.20;;;;;;;21.54;43.44;101779.41;5076904;28;20105;-37
2023/05/20 06:28:13;;;;;;;0.10;0.10;;;;;;;21.54;43.51;101777.50;5076425;28;20385;-37
2023/05/20 06:30:40;;;;;;;0.10;0.10;;;;;;;21.54;43.46;101771.09;5075868;28;20071;-37
2023/05/20 06:33:05;;;;;;;0.20;0.20;;;;;;;21.53;43.41;101767.50;5076467;28;20054;-37
2023/05/20 06:35:33;;;;;;;0.20;0.20;;;;;;;21.53;43.41;101763.91;5058211;28;20052;-37
2023/05/20 06:38:01;;;;;;;0.10;0.10;;;;;;;21.53;43.40;101764.72;5075741;28;20402;-37
2023/05/20 06:40:27;;;;;;;0.10;0.10;;;;;;;21.51;43.25;101766.97;5065056;28;20044;-37
2023/05/20 06:42:53;;;;;;;0.10;0.10;;;;;;;21.54;43.45;101762.78;5055755;28;20190;-37
2023/05/20 06:45:18;;;;;;;0.10;0.10;;;;;;;21.55;43.65;101758.94;5038278;28;20091;-37
2023/05/20 06:47:44;;;;;;;0.20;0.20;;;;;;;21.54;43.35;101752.56;5055980;28;20047;-37
2023/05/20 06:50:10;;;;;;;0.20;0.20;;;;;;;21.55;43.50;101750.63;5062449;28;20436;-37
2023/05/20 06:52:36;;;;;;;0.20;0.20;;;;;;;21.55;43.35;101750.63;5075697;28;20048;-37
2023/05/20 06:55:03;;;;;;;0.10;0.10;;;;;;;21.56;43.43;101743.13;5057949;28;20563;-37
2023/05/20 06:57:28;;;;;;;0.20;0.20;;;;;;;21.52;43.41;101749.22;5064245;28;20051;-37
2023/05/20 06:59:54;;;;;;;0.17;0.17;;;;;;;21.56;43.46;101743.97;5059891;28;20048;-38
2023/05/20 07:02:21;;;;;;;0.20;0.20;;;;;;;21.56;43.30;101740.34;5075316;28;20288;-37
2023/05/20 07:04:46;;;;;;;0.13;0.13;;;;;;;21.55;43.37;101745.06;5062668;28;20045;-37
2023/05/20 07:07:12;;;;;;;0.20;0.20;;;;;;;21.56;43.41;101757.00;5055320;28;20094;-38
2023/05/20 07:09:39;;;;;;;0.20;0.20;;;;;;;21.53;43.45;101756.41;5057483;28;20102;-37
2023/05/20 07:12:05;;;;;;;0.10;0.10;;;;;;;21.55;43.43;101753.38;5075346;28;20555;-37
2023/05/20 07:14:30;;;;;;;0.10;0.10;;;;;;;21.53;43.40;101747.28;5075539;28;20234;-37
2023/05/20 07:16:56;;;;;;;0.20;0.20;;;;;;;21.54;43.44;101735.94;5075713;28;20048;-37
2023/05/20 07:19:22;;;;;;;0.20;0.20;;;;;;;21.56;43.39;101734.81;5073570;28;20446;-37
2023/05/20 07:21:48;;;;;;;0.20;0.20;;;;;;;21.56;43.28;101740.34;5075344;28;20289;-37
2023/05/20 07:24:15;;;;;;;0.20;0.20;;;;;;;21.59;43.31;101739.78;5075389;28;20068;-37
2023/05/20 07:26:40;;;;;;;0.10;0.10;;;;;;;21.57;43.37;101742.84;5075915;28;20260;-37
2023/05/20 07:29:06;;;;;;;0.10;0.10;;;;;;;21.56;43.36;101748.69;5075148;28;20550;-37
2023/05/20 07:31:32;;;;;;;0.10;0.10;;;;;;;21.56;43.32;101746.72;5074352;28;20192;-37
2023/05/20 07:33:58;;;;;;;0.10;0.10;;;;;;;21.56;43.49;101741.19;5074655;28;20424;-37
2023/05/20 07:36:26;;;;;;;0.17;0.17;;;;;;;21.55;43.26;101736.75;5074746;28;20039;-37
2023/05/20 07:38:51;;;;;;;0.20;0.20;;;;;;;21.57;43.44;101733.69;5056705;28;20048;-37
2023/05/20 07:41:27;;;;;;;0.20;0.20;;;;;;;21.55;43.40;101728.44;5070220;28;20048;-37
2023/05/20 07:43:53;;;;;;;0.20;0.20;;;;;;;21.55;43.47;101725.69;5052950;28;20502;-37
2023/05/20 07:46:18;;;;;;;0.20;0.20;;;;;;;21.53;43.48;101717.63;5054657;28;20102;-37
2023/05/20 07:48:45;;;;;;;0.20;0.20;;;;;;;21.55;43.54;101720.13;5054356;28;20048;-37
2023/05/20 07:51:11;;;;;;;0.10;0.10;;;;;;;21.55;43.51;101725.69;5069957;28;20047;-37
2023/05/20 07:53:37;;;;;;;0.20;0.20;;;;;;;21.54;43.34;101721.22;5056365;28;20431;-37
2023/05/20 07:56:02;;;;;;;0.20;0.20;;;;;;;21.56;43.41;101726.50;5074633;28;20036;-37
2023/05/20 07:58:30;;;;;;;0.20;0.20;;;;;;;21.57;43.46;101730.94;5054027;28;20056;-37
2023/05/20 08:00:56;;;;;;;0.20;0.20;;;;;;;21.55;43.39;101725.69;5056436;28;20103;-38
2023/05/20 08:03:22;;;;;;;0.10;0.10;;;;;;;21.57;43.30;101725.38;5054101;28;20650;-37
2023/05/20 08:05:48;;;;;;;0.10;0.10;;;;;;;21.56;43.21;101721.78;5054090;28;20531;-37
2023/05/20 08:08:14;;;;;;;0.10;0.10;;;;;;;21.55;43.29;101720.13;5035728;28;20037;-37
2023/05/20 08:10:40;;;;;;;0.17;0.17;;;;;;;21.55;43.40;101717.34;5065186;28;20044;-37
2023/05/20 08:13:06;;;;;;;0.10;0.10;;;;;;;21.55;43.41;101714.59;5072581;28;20048;-37
2023/05/20 08:15:32;;;;;;;0.10;0.10;;;;;;;21.57;43.17;101717.91;5074275;28;20453;-37
2023/05/20 08:17:58;;;;;;;0.20;0.20;;;;;;;21.57;43.30;101717.06;5074795;28;20044;-37
2023/05/20 08:20:25;;;;;;;0.40;0.40;;;;;;;21.57;43.25;101725.38;5074148;28;20407;-37
2023/05/20 08:22:51;;;;;;;0.15;0.15;;;;;;;21.58;43.28;101725.09;5074173;28;20272;-37
2023/05/20 08:25:17;;;;;;;0.20;0.20;;;;;;;21.59;43.30;101720.38;5056149;28;20500;-37
2023/05/20 08:27:42;;;;;;;0.20;0.20;;;;;;;21.58;43.34;101724.28;5074527;28;20048;-37
2023/05/20 08:30:08;;;;;;;0.20;0.20;;;;;;;21.56;43.38;101724.56;5074284;28;20044;-37
2023/05/20 08:32:35;;;;;;;0.20;0.20;;;;;;;21.56;43.09;101720.97;5073824;28;20048;-37
2023/05/20 08:35:01;;;;;;;0.20;0.20;;;;;;;21.56;43.42;101713.47;5074157;28;20052;-37
2023/05/20 08:37:28;;;;;;;0.20;0.20;;;;;;;21.57;43.25;101717.06;5073826;28;20079;-37
2023/05/20 08:39:54;;;;;;;0.20;0.20;;;;;;;21.57;43.24;101708.75;5072238;28;20044;-37
2023/05/20 08:42:22;;;;;;;0.20;0.20;;;;;;;21.57;43.26;101708.75;5054190;28;20080;-37
2023/05/20 08:44:49;;;;;;;0.10;0.10;;;;;;;21.57;43.41;101714.31;5051409;28;20564;-37
2023/05/20 08:47:15;;;;;;;0.20;0.20;;;;;;;21.55;43.40;101714.59;5035868;28;20044;-37
2023/05/20 08:49:41;;;;;;;0.20;0.20;;;;;;;21.54;43.37;101705.44;5056712;28;20419;-37
2023/05/20 08:52:09;;;;;;;0.20;0.20;;;;;;;21.55;43.32;101706.28;5074243;28;20044;-37
2023/05/20 08:54:43;;;;;;;0.20;0.20;;;;;;;21.56;43.30;101705.16;5073761;28;20051;-37
2023/05/20 08:57:12;;;;;;;0.20;0.20;;;;;;;21.57;43.34;101698.50;5055450;28;20045;-37
2023/05/20 08:59:41;;;;;;;0.20;0.20;;;;;;;21.57;43.29;101701.25;5057278;28;20044;-37
2023/05/20 09:02:07;;;;;;;;;;;;;;;21.59;43.20;101709.28;5073616;28;20044;-37
2023/05/20 09:04:33;;;;;;;0.20;0.20;;;;;;;21.56;43.21;101705.16;5057283;28;20467;-37
2023/05/20 09:06:58;;;;;;;0.20;0.20;;;;;;;21.56;43.30;101701.56;5056985;28;20365;-37
2023/05/20 09:09:24;;;;;;;0.20;0.20;;;;;;;21.57;43.27;101708.75;5057801;28;20095;-37
2023/05/20 09:11:50;;;;;;;0.10;0.10;;;;;;;21.58;43.26;101707.63;5077453;28;20919;-38
2023/05/20 09:14:15;;;;;;;0.20;0.20;;;;;;;21.56;43.39;101696.84;5077110;28;20048;-37
2023/05/20 09:16:41;;;;;;;0.10;0.10;;;;;;;21.58;43.33;101693.78;5075442;28;20487;-37
2023/05/20 09:19:08;;;;;;;0.15;0.15;;;;;;;21.57;43.29;101701.25;5077338;28;20043;-37
2023/05/20 09:21:34;;;;;;;0.10;0.10;;;;;;;21.56;43.23;101694.06;5059178;28;20227;-37
2023/05/20 09:24:01;;;;;;;0.20;0.20;;;;;;;21.54;43.23;101702.69;5058964;28;20281;-37
2023/05/20 09:26:27;;;;;;;0.10;0.10;;;;;;;21.57;43.39;101701.25;5075789;28;20089;-37
2023/05/20 09:28:55;;;;;;;0.10;0.10;;;;;;;21.58;43.24;101702.94;5076953;28;20503;-37
2023/05/20 09:31:25;;;;;;;0.20;0.20;;;;;;;21.58;42.99;101697.38;5076671;28;20062;-38
2023/05/20 09:33:51;;;;;;;0.20;0.20;;;;;;;21.59;43.22;101699.06;5075651;28;20051;-37
2023/05/20 09:36:18;;;;;;;0.20;0.20;;;;;;;21.59;43.12;101696.28;5076810;28;20058;-37
2023/05/20 09:38:44;;;;;;;0.20;0.20;;;;;;;21.59;43.49;101692.66;5075246;28;20048;-37
2023/05/20 09:41:11;;;;;;;0.20;0.20;;;;;;;21.60;43.24;101699.88;5075223;28;20558;-37
2023/05/20 09:43:39;;;;;;;0.20;0.20;;;;;;;21.55;43.33;101700.72;5075395;28;20479;-37
2023/05/20 09:46:05;;;;;;;0.10;0.10;;;;;;;21.57;43.29;101701.25;5062831;28;20052;-37
2023/05/20 09:48:31;;;;;;;0.20;0.20;;;;;;;21.57;43.14;101690.19;5038590;28;20666;-37
2023/05/20 09:51:00;;;;;;;0.20;0.20;;;;;;;21.57;43.25;101679.09;5043027;28;20045;-37
2023/05/20 09:53:27;;;;;;;0.20;0.20;;;;;;;21.57;43.22;101692.13;5038884;28;20048;-37
2023/05/20 09:55:53;;;;;;;0.10;0.10;;;;;;;21.60;43.21;101691.56;5054978;28;20048;-37
2023/05/20 09:58:19;;;;;;;0.10;0.10;;;;;;;21.60;43.25;101688.81;5056413;28;20080;-37
2023/05/20 10:00:45;;;;;;;0.20;0.20;;;;;;;21.58;43.22;101694.59;5050181;28;20048;-38
2023/05/20 10:03:11;;;;;;;0.20;0.20;;;;;;;21.58;43.30;101691.84;5059096;28;20074;-37
2023/05/20 10:05:40;;;;;;;0.20;0.20;;;;;;;21.57;43.20;101690.19;5057523;28;20048;-37
2023/05/20 10:08:31;;;;;;;0.10;0.10;;;;;;;21.56;43.21;101690.47;5038021;28;20040;-37
2023/05/20 10:11:11;;;;;;;0.15;0.15;;;;;;;21.57;43.32;101687.41;5054902;28;20067;-37
2023/05/20 10:14:16;;;;;;;0.13;0.13;;;;;;;21.55;43.26;101678.56;5075559;28;20044;-37
2023/05/20 10:16:49;;;;;;;0.20;0.20;;;;;;;21.56;43.19;101679.38;5061147;28;20052;-37
2023/05/20 10:19:29;;;;;;;0.10;0.10;;;;;;;21.56;43.30;101685.75;5076809;28;20056;-37
2023/05/20 10:22:10;;;;;;;0.20;0.20;;;;;;;21.57;43.20;101673.56;5058031;28;20048;-37
2023/05/20 10:24:39;;;;;;;0.20;0.20;;;;;;;21.56;43.10;101680.22;5076921;28;20471;-37
2023/05/20 10:27:08;;;;;;;0.10;0.10;;;;;;;21.58;43.24;101686.28;5074750;28;20336;-37
2023/05/20 10:29:54;;;;;;;0.20;0.20;;;;;;;21.58;43.16;101680.75;5074467;28;20044;-37
2023/05/20 10:32:30;;;;;;;0.20;0.20;;;;;;;21.58;43.17;101677.97;5074885;28;20044;-37
2023/05/20 10:35:01;;;;;;;0.20;0.20;;;;;;;21.57;43.29;101676.31;5075226;28;20052;-37
2023/05/20 10:37:29;;;;;;;0.20;0.20;;;;;;;21.59;43.11;101674.13;5074438;28;20059;-37
2023/05/20 10:40:12;;;;;;;0.20;0.20;;;;;;;21.60;42.88;101678.53;5075860;28;20502;-38
2023/05/20 10:42:38;;;;;;;0.20;0.20;;;;;;;21.57;43.20;101690.19;5074748;28;20051;-37
2023/05/20 10:45:05;;;;;;;0.10;0.10;;;;;;;21.56;43.28;101682.16;5074969;28;20055;-37
2023/05/20 10:47:31;;;;;;;0.20;0.20;;;;;;;21.58;43.16;101689.06;5066403;28;20080;-37
2023/05/20 10:49:57;;;;;;;0.20;0.20;;;;;;;21.56;43.30;101680.22;5060844;28;20044;-37
2023/05/20 10:52:23;;;;;;;0.20;0.20;;;;;;;21.54;43.19;101672.19;5074588;28;20436;-37
2023/05/20 10:57:28;;;;;;;0.20;0.20;;;;;;;21.57;43.31;101672.72;5195030;27;20127;-39
2023/05/20 10:59:54;;;;;;;0.10;0.10;;;;;;;21.58;43.22;101677.16;5133205;27;20042;-39
2023/05/20 11:02:25;;;;;;;0.20;0.20;;;;;;;21.60;43.13;101686.88;5138942;27;20333;-38
2023/05/20 11:04:52;;;;;;;0.20;0.20;;;;;;;21.60;43.16;101672.19;5175258;27;20041;-39
2023/05/20 11:07:32;;;;;;;0.20;0.20;;;;;;;21.59;43.29;101673.25;5144430;27;20425;-39
2023/05/20 11:09:58;;;;;;;0.20;0.20;;;;;;;21.56;43.22;101669.13;5158587;27;20041;-38
2023/05/20 11:12:25;;;;;;;0.20;0.20;;;;;;;21.58;43.09;101677.16;5173667;27;20458;-39
2023/05/20 11:14:51;;;;;;;0.20;0.20;;;;;;;21.61;43.22;101668.28;5138205;27;20072;-38
2023/05/20 11:17:18;;;;;;;0.10;0.10;;;;;;;21.58;43.21;101675.22;5155632;27;20208;-39
2023/05/20 11:19:44;;;;;;;0.20;0.20;;;;;;;21.57;43.27;101668.00;5155233;27;20481;-39
2023/05/20 11:22:10;;;;;;;0.20;0.20;;;;;;;21.60;43.20;101680.50;5173964;27;20316;-39
2023/05/20 11:24:36;;;;;;;0.20;0.20;;;;;;;21.57;43.31;101679.09;5174088;27;20304;-39
2023/05/20 11:27:02;;;;;;;0.20;0.20;;;;;;;21.59;43.30;101685.22;5174048;27;20068;-39